Airfield :
LOGIN :

Register | Disclaimer

   EN    FR    IT 

 










Legend :    VFR   Marginal VFR   IFR   Intensive IFR   Very Intensive IFR
Visi :
Ceiling :
>= 8 km
>= 3000ft
5 to 8 km
1000 to 3000 ft
1500m to 5 km
500 to 1000 ft
800 to 1500m
200 to 500 ft
< 800m
< 200 ft
Symbols :   Thunderstorms  Fog  Heavy snow  Heavy precipitations  Wind > 20 kt
SIGMETs :     Misc.  Thunderstorms  Icing  Turbulence  Mountain Waves  Volcanic Ashes






- Airport Elevation : 14 ft
- IATA code : BRE


EDDW - Bremen Neuenland

CURRENT METAR :
  • 152250Z 22010KT CAVOK 06/02 Q1005

EXPIRED METARs :
  • 152220Z 22013KT CAVOK 06/02 Q1005
  • 152150Z 22015KT CAVOK 06/03 Q1005
  • 152120Z 23014KT 9999 SCT030 06/03 Q1004 NOSIG
  • 152050Z 23014G24KT 9999 SCT030 06/03 Q1004 NOSIG
  • 152020Z 23014KT 9999 SCT030 07/03 Q1003 NOSIG

TAF TAF EDDW
Valid from the 15 at 18:00 until the 16 at 18:00 UTC


151700Z 1518/1618 23015G25KT 9999 FEW035
BECMG 1518/1521 22013KT
BECMG 1523/1602 17008KT
TEMPO 1613/1618 BKN012



MET'MAP, your aeronautical weather chart ! - Copyright ORBIFLY December 2007 - Disclaimer

ORBIFLY MET'MAP TEAM :

Programming & Development : Alexandra Zaïnal
Concept & original design : Baudouin d'Aumeries
Assistance for programming : Marc-Olivier Méhu
Technical & hardware support : Manuel Goepfert

Contact : metmap@orbifly.com




SOURCES & CREDITS :

   NOAA